Sven — DGGW — position and weather

sailwx.info

Track history (hours):
 
Tides and Currents Weather Stations Pressure Air Temp Water Temp Dewpoint Dewpoint Depression Visibility Wind Speed Wind Dir Waves Ship Positions

Sven

Last reported at 2017-Oct-16 15:28 UTC. Time now 2017-Oct-17 06:13 UTC.
Position N 37°35' W 000°59'.

Length 121 m; draft 6.8 m.

Type: Ship (hazmat cat A). MMSI: 211237900.

Date/timePositionNaut miles runAvg speedWind from/ knotsBaromVisibWave heightAir tempDewpointWater temp
2017-Oct-16 15:28N 37°35' W 000°59'4 8.4
2017-Oct-16 15:00N 37°32' W 000°56'1414.0
2017-Oct-16 14:00N 37°33' W 000°39'611.5
2017-Oct-16 13:30N 37°36' W 000°33'612.5
2017-Oct-16 13:00N 37°41' W 000°28'612.2
2017-Oct-16 12:30N 37°46' W 000°24'612.1
2017-Oct-16 11:59N 37°51' W 000°19'712.1
2017-Oct-16 11:27N 37°57' W 000°15'512.2
2017-Oct-16 11:00N 38°02' W 000°12'27 0.8
2017-Oct-14 23:28N 38°27' E 000°01'36 3.8
2017-Oct-14 14:04N 37°60' W 000°28'110.8
2017-Oct-14 14:00N 37°59' W 000°28'611.0
2017-Oct-14 13:30N 37°54' W 000°29'511.0
2017-Oct-14 13:00N 37°48' W 000°30'511.0
2017-Oct-14 12:30N 37°43' W 000°30'510.7
2017-Oct-14 12:00N 37°38' W 000°30'5 9.9
2017-Oct-14 11:29N 37°33' W 000°32'710.4
2017-Oct-14 10:47N 37°28' W 000°39'310.6
2017-Oct-14 10:30N 37°26' W 000°42'510.7
2017-Oct-14 10:00N 37°22' W 000°46'611.0
2017-Oct-14 09:30N 37°18' W 000°52'811.1
2017-Oct-14 08:49N 37°13' W 000°59'310.9
2017-Oct-14 08:30N 37°11' W 001°02'510.7
2017-Oct-14 08:00N 37°08' W 001°07'5810.7
2017-Oct-14 02:33N 36°29' W 002°02'111.2
2017-Oct-14 02:28N 36°29' W 002°03'7010.3
2017-Oct-13 19:42N 36°32' W 003°30'610.3
2017-Oct-13 19:08N 36°33' W 003°37'110.3
2017-Oct-13 19:00N 36°34' W 003°39'80 3.3
2017-Oct-12 18:54N 36°34' W 001°59'611.3
2017-Oct-12 18:23N 36°39' W 001°54'512.4
2017-Oct-12 17:58N 36°42' W 001°50'1513.3
2017-Oct-12 16:53N 36°52' W 001°37'513.2
2017-Oct-12 16:30N 36°55' W 001°32'913.2
2017-Oct-12 15:48N 37°01' W 001°23'1912.9
2017-Oct-12 14:22N 37°14' W 001°05'512.9
2017-Oct-12 14:00N 37°17' W 001°01'612.6
2017-Oct-12 13:30N 37°21' W 000°55'612.7
2017-Oct-12 13:00N 37°25' W 000°49'612.4
2017-Oct-12 12:30N 37°29' W 000°43'612.5
2017-Oct-12 12:00N 37°33' W 000°37'612.3
2017-Oct-12 11:30N 37°37' W 000°32'612.2
2017-Oct-12 11:00N 37°42' W 000°27'712.5
2017-Oct-12 10:25N 37°48' W 000°22'712.7
2017-Oct-12 09:52N 37°54' W 000°16'512.9
2017-Oct-12 09:30N 37°57' W 000°13'612.8
2017-Oct-12 09:00N 38°03' W 000°08'612.8
2017-Oct-12 08:30N 38°08' W 000°04'612.6
2017-Oct-12 08:00N 38°14' E 000°00'812.8
2017-Oct-12 07:24N 38°20' E 000°06'512.8
2017-Oct-12 07:00N 38°24' E 000°09'613.0
2017-Oct-12 06:30N 38°30' E 000°13'1712.3
2017-Oct-12 05:09N 38°45' E 000°23'212.2
2017-Oct-12 04:59N 38°46' E 000°22'71 1.6
2017-Oct-10 09:26N 37°44' W 000°21'4 9.9
2017-Oct-10 09:00N 37°41' W 000°24'5 9.9
2017-Oct-10 08:30N 37°37' W 000°28'5 9.6
2017-Oct-10 08:00N 37°33' W 000°32'4 8.7
2017-Oct-10 07:30N 37°32' W 000°37'5 9.3
2017-Oct-10 07:00N 37°31' W 000°43'5 9.5
2017-Oct-10 06:30N 37°31' W 000°49'9 0.6
2017-Oct-09 15:53N 37°35' W 000°59'2 4.9
2017-Oct-09 15:26N 37°33' W 000°59'2 4.5
2017-Oct-09 14:59N 37°33' W 000°57'5 9.6
2017-Oct-09 14:30N 37°32' W 000°51'510.1
2017-Oct-09 14:00N 37°32' W 000°45'5 9.5
2017-Oct-09 13:30N 37°33' W 000°39'5 9.2
2017-Oct-09 13:00N 37°35' W 000°33'5 9.4
2017-Oct-09 12:30N 37°39' W 000°31'5 9.6
2017-Oct-09 12:00N 37°44' W 000°28'5 9.8
2017-Oct-09 11:30N 37°47' W 000°24'6 9.9
2017-Oct-09 10:56N 37°52' W 000°21'4 9.9
2017-Oct-09 10:30N 37°55' W 000°17'5 9.8
2017-Oct-09 09:58N 37°59' W 000°13'4 9.1
2017-Oct-09 09:30N 38°03' W 000°10'6 9.2
2017-Oct-09 08:54N 38°08' W 000°06'4 9.3
2017-Oct-09 08:30N 38°11' W 000°03'5 9.1
2017-Oct-09 07:58N 38°15' W 000°00'1611.3
2017-Oct-09 06:35N 38°27' E 000°12'41 0.8
2017-Oct-07 03:08N 38°00' W 000°27'211.5
2017-Oct-07 02:55N 37°58' W 000°27'511.7
2017-Oct-07 02:30N 37°53' W 000°28'611.9
2017-Oct-07 01:59N 37°47' W 000°28'611.8
2017-Oct-07 01:30N 37°41' W 000°29'611.5
2017-Oct-07 01:00N 37°35' W 000°29'611.1
2017-Oct-07 00:30N 37°31' W 000°34'611.3
2017-Oct-07 00:00N 37°27' W 000°39'611.4
2017-Oct-06 23:30N 37°24' W 000°44'611.3
2017-Oct-06 22:58N 37°20' W 000°50'811.4
2017-Oct-06 22:16N 37°15' W 000°57'3211.5
2017-Oct-06 19:27N 36°54' W 001°28'  
Track history (hours):
 
Tides and Currents Weather Stations Pressure Air Temp Water Temp Dewpoint Dewpoint Depression Visibility Wind Speed Wind Dir Waves Ship Positions

Sven

Last reported at 2017-Oct-16 15:28 UTC. Time now 2017-Oct-17 06:13 UTC.
Position N 37°35' W 000°59'.

Length 121 m; draft 6.8 m.

Type: Ship (hazmat cat A). MMSI: 211237900.

Date/timePositionNaut miles runAvg speedWind from/ knotsBaromVisibWave heightAir tempDewpointWater temp
2017-Oct-16 15:28N 37°35' W 000°59'4 8.4
2017-Oct-16 15:00N 37°32' W 000°56'1414.0
2017-Oct-16 14:00N 37°33' W 000°39'611.5
2017-Oct-16 13:30N 37°36' W 000°33'612.5
2017-Oct-16 13:00N 37°41' W 000°28'612.2
2017-Oct-16 12:30N 37°46' W 000°24'612.1
2017-Oct-16 11:59N 37°51' W 000°19'712.1
2017-Oct-16 11:27N 37°57' W 000°15'512.2
2017-Oct-16 11:00N 38°02' W 000°12'27 0.8
2017-Oct-14 23:28N 38°27' E 000°01'36 3.8
2017-Oct-14 14:04N 37°60' W 000°28'110.8
2017-Oct-14 14:00N 37°59' W 000°28'611.0
2017-Oct-14 13:30N 37°54' W 000°29'511.0
2017-Oct-14 13:00N 37°48' W 000°30'511.0
2017-Oct-14 12:30N 37°43' W 000°30'510.7
2017-Oct-14 12:00N 37°38' W 000°30'5 9.9
2017-Oct-14 11:29N 37°33' W 000°32'710.4
2017-Oct-14 10:47N 37°28' W 000°39'310.6
2017-Oct-14 10:30N 37°26' W 000°42'510.7
2017-Oct-14 10:00N 37°22' W 000°46'611.0
2017-Oct-14 09:30N 37°18' W 000°52'811.1
2017-Oct-14 08:49N 37°13' W 000°59'310.9
2017-Oct-14 08:30N 37°11' W 001°02'510.7
2017-Oct-14 08:00N 37°08' W 001°07'5810.7
2017-Oct-14 02:33N 36°29' W 002°02'111.2
2017-Oct-14 02:28N 36°29' W 002°03'7010.3
2017-Oct-13 19:42N 36°32' W 003°30'610.3
2017-Oct-13 19:08N 36°33' W 003°37'110.3
2017-Oct-13 19:00N 36°34' W 003°39'80 3.3
2017-Oct-12 18:54N 36°34' W 001°59'611.3
2017-Oct-12 18:23N 36°39' W 001°54'512.4
2017-Oct-12 17:58N 36°42' W 001°50'1513.3
2017-Oct-12 16:53N 36°52' W 001°37'513.2
2017-Oct-12 16:30N 36°55' W 001°32'913.2
2017-Oct-12 15:48N 37°01' W 001°23'1912.9
2017-Oct-12 14:22N 37°14' W 001°05'512.9
2017-Oct-12 14:00N 37°17' W 001°01'612.6
2017-Oct-12 13:30N 37°21' W 000°55'612.7
2017-Oct-12 13:00N 37°25' W 000°49'612.4
2017-Oct-12 12:30N 37°29' W 000°43'612.5
2017-Oct-12 12:00N 37°33' W 000°37'612.3
2017-Oct-12 11:30N 37°37' W 000°32'612.2
2017-Oct-12 11:00N 37°42' W 000°27'712.5
2017-Oct-12 10:25N 37°48' W 000°22'712.7
2017-Oct-12 09:52N 37°54' W 000°16'512.9
2017-Oct-12 09:30N 37°57' W 000°13'612.8
2017-Oct-12 09:00N 38°03' W 000°08'612.8
2017-Oct-12 08:30N 38°08' W 000°04'612.6
2017-Oct-12 08:00N 38°14' E 000°00'812.8
2017-Oct-12 07:24N 38°20' E 000°06'512.8
2017-Oct-12 07:00N 38°24' E 000°09'613.0
2017-Oct-12 06:30N 38°30' E 000°13'1712.3
2017-Oct-12 05:09N 38°45' E 000°23'212.2
2017-Oct-12 04:59N 38°46' E 000°22'71 1.6
2017-Oct-10 09:26N 37°44' W 000°21'4 9.9
2017-Oct-10 09:00N 37°41' W 000°24'5 9.9
2017-Oct-10 08:30N 37°37' W 000°28'5 9.6
2017-Oct-10 08:00N 37°33' W 000°32'4 8.7
2017-Oct-10 07:30N 37°32' W 000°37'5 9.3
2017-Oct-10 07:00N 37°31' W 000°43'5 9.5
2017-Oct-10 06:30N 37°31' W 000°49'9 0.6
2017-Oct-09 15:53N 37°35' W 000°59'2 4.9
2017-Oct-09 15:26N 37°33' W 000°59'2 4.5
2017-Oct-09 14:59N 37°33' W 000°57'5 9.6
2017-Oct-09 14:30N 37°32' W 000°51'510.1
2017-Oct-09 14:00N 37°32' W 000°45'5 9.5
2017-Oct-09 13:30N 37°33' W 000°39'5 9.2
2017-Oct-09 13:00N 37°35' W 000°33'5 9.4
2017-Oct-09 12:30N 37°39' W 000°31'5 9.6
2017-Oct-09 12:00N 37°44' W 000°28'5 9.8
2017-Oct-09 11:30N 37°47' W 000°24'6 9.9
2017-Oct-09 10:56N 37°52' W 000°21'4 9.9
2017-Oct-09 10:30N 37°55' W 000°17'5 9.8
2017-Oct-09 09:58N 37°59' W 000°13'4 9.1
2017-Oct-09 09:30N 38°03' W 000°10'6 9.2
2017-Oct-09 08:54N 38°08' W 000°06'4 9.3
2017-Oct-09 08:30N 38°11' W 000°03'5 9.1
2017-Oct-09 07:58N 38°15' W 000°00'1611.3
2017-Oct-09 06:35N 38°27' E 000°12'41 0.8
2017-Oct-07 03:08N 38°00' W 000°27'211.5
2017-Oct-07 02:55N 37°58' W 000°27'511.7
2017-Oct-07 02:30N 37°53' W 000°28'611.9
2017-Oct-07 01:59N 37°47' W 000°28'611.8
2017-Oct-07 01:30N 37°41' W 000°29'611.5
2017-Oct-07 01:00N 37°35' W 000°29'611.1
2017-Oct-07 00:30N 37°31' W 000°34'611.3
2017-Oct-07 00:00N 37°27' W 000°39'611.4
2017-Oct-06 23:30N 37°24' W 000°44'611.3
2017-Oct-06 22:58N 37°20' W 000°50'811.4
2017-Oct-06 22:16N 37°15' W 000°57'3211.5
2017-Oct-06 19:27N 36°54' W 001°28'  

Dump ship's entire track history